sensor_id;sensor_type;location;lat;lon;timestamp;P1;durP1;ratioP1;P2;durP2;ratioP2
17363;SDS011;8799;43.594;13.526;2022-11-20T00:02:18;2.63;;;1.43;;
17363;SDS011;8799;43.594;13.526;2022-11-20T00:04:46;4.03;;;1.60;;
17363;SDS011;8799;43.594;13.526;2022-11-20T00:07:15;3.77;;;1.37;;
17363;SDS011;8799;43.594;13.526;2022-11-20T00:09:43;3.83;;;1.43;;
17363;SDS011;8799;43.594;13.526;2022-11-20T00:12:11;1.60;;;1.23;;
17363;SDS011;8799;43.594;13.526;2022-11-20T00:14:38;4.37;;;1.57;;
17363;SDS011;8799;43.594;13.526;2022-11-20T00:17:09;4.77;;;1.60;;
17363;SDS011;8799;43.594;13.526;2022-11-20T00:19:37;4.80;;;1.60;;
17363;SDS011;8799;43.594;13.526;2022-11-20T00:22:04;6.77;;;1.60;;
17363;SDS011;8799;43.594;13.526;2022-11-20T00:24:33;5.37;;;2.03;;
17363;SDS011;8799;43.594;13.526;2022-11-20T00:27:01;2.60;;;1.10;;
17363;SDS011;8799;43.594;13.526;2022-11-20T00:29:29;3.93;;;1.50;;
17363;SDS011;8799;43.594;13.526;2022-11-20T00:31:57;5.27;;;1.80;;
17363;SDS011;8799;43.594;13.526;2022-11-20T00:34:27;7.67;;;1.90;;
17363;SDS011;8799;43.594;13.526;2022-11-20T00:36:56;4.83;;;1.70;;
17363;SDS011;8799;43.594;13.526;2022-11-20T00:39:24;2.10;;;1.47;;
17363;SDS011;8799;43.594;13.526;2022-11-20T00:41:52;2.80;;;1.37;;
17363;SDS011;8799;43.594;13.526;2022-11-20T00:44:20;5.33;;;1.60;;
17363;SDS011;8799;43.594;13.526;2022-11-20T00:46:55;2.83;;;1.27;;
17363;SDS011;8799;43.594;13.526;2022-11-20T00:49:35;4.63;;;1.43;;
17363;SDS011;8799;43.594;13.526;2022-11-20T00:52:03;1.80;;;1.40;;
17363;SDS011;8799;43.594;13.526;2022-11-20T00:54:34;4.67;;;1.60;;
17363;SDS011;8799;43.594;13.526;2022-11-20T00:57:05;5.67;;;1.43;;
17363;SDS011;8799;43.594;13.526;2022-11-20T00:59:34;1.47;;;1.10;;
17363;SDS011;8799;43.594;13.526;2022-11-20T01:02:02;2.57;;;1.30;;
17363;SDS011;8799;43.594;13.526;2022-11-20T01:04:30;1.80;;;1.00;;
17363;SDS011;8799;43.594;13.526;2022-11-20T01:06:59;1.77;;;1.40;;
17363;SDS011;8799;43.594;13.526;2022-11-20T01:09:28;2.10;;;1.40;;
17363;SDS011;8799;43.594;13.526;2022-11-20T01:11:57;3.27;;;1.63;;
17363;SDS011;8799;43.594;13.526;2022-11-20T01:14:26;2.13;;;1.00;;
17363;SDS011;8799;43.594;13.526;2022-11-20T01:16:55;2.13;;;1.17;;
17363;SDS011;8799;43.594;13.526;2022-11-20T01:19:24;3.27;;;1.20;;
17363;SDS011;8799;43.594;13.526;2022-11-20T01:21:53;3.07;;;1.40;;
17363;SDS011;8799;43.594;13.526;2022-11-20T01:24:23;4.17;;;1.20;;
17363;SDS011;8799;43.594;13.526;2022-11-20T01:26:51;4.53;;;1.33;;
17363;SDS011;8799;43.594;13.526;2022-11-20T01:29:21;2.63;;;1.17;;
17363;SDS011;8799;43.594;13.526;2022-11-20T01:31:50;2.23;;;1.17;;
17363;SDS011;8799;43.594;13.526;2022-11-20T01:34:20;3.17;;;1.40;;
17363;SDS011;8799;43.594;13.526;2022-11-20T01:36:49;2.30;;;1.10;;
17363;SDS011;8799;43.594;13.526;2022-11-20T01:39:17;3.03;;;1.33;;
17363;SDS011;8799;43.594;13.526;2022-11-20T01:41:48;3.77;;;1.07;;
17363;SDS011;8799;43.594;13.526;2022-11-20T01:44:45;4.30;;;1.30;;
17363;SDS011;8799;43.594;13.526;2022-11-20T01:47:20;1.27;;;1.10;;
17363;SDS011;8799;43.594;13.526;2022-11-20T01:49:53;1.50;;;1.17;;
17363;SDS011;8799;43.594;13.526;2022-11-20T01:52:26;1.00;;;0.90;;
17363;SDS011;8799;43.594;13.526;2022-11-20T01:55:00;4.13;;;1.40;;
17363;SDS011;8799;43.594;13.526;2022-11-20T01:57:34;2.67;;;1.23;;
17363;SDS011;8799;43.594;13.526;2022-11-20T02:00:04;3.03;;;1.30;;
17363;SDS011;8799;43.594;13.526;2022-11-20T02:02:35;1.40;;;1.17;;
17363;SDS011;8799;43.594;13.526;2022-11-20T02:05:09;3.50;;;1.20;;
17363;SDS011;8799;43.594;13.526;2022-11-20T02:07:43;2.97;;;1.40;;
17363;SDS011;8799;43.594;13.526;2022-11-20T02:10:12;2.40;;;1.20;;
17363;SDS011;8799;43.594;13.526;2022-11-20T02:12:43;3.40;;;1.27;;
17363;SDS011;8799;43.594;13.526;2022-11-20T02:15:28;1.70;;;1.00;;
17363;SDS011;8799;43.594;13.526;2022-11-20T02:17:57;3.03;;;1.00;;
17363;SDS011;8799;43.594;13.526;2022-11-20T02:20:26;2.03;;;1.80;;
17363;SDS011;8799;43.594;13.526;2022-11-20T02:22:57;2.70;;;1.30;;
17363;SDS011;8799;43.594;13.526;2022-11-20T02:25:31;2.17;;;1.23;;
17363;SDS011;8799;43.594;13.526;2022-11-20T02:28:01;1.30;;;1.10;;
17363;SDS011;8799;43.594;13.526;2022-11-20T02:30:30;2.07;;;0.97;;
17363;SDS011;8799;43.594;13.526;2022-11-20T02:32:57;2.47;;;1.37;;
17363;SDS011;8799;43.594;13.526;2022-11-20T02:35:41;3.47;;;1.27;;
17363;SDS011;8799;43.594;13.526;2022-11-20T02:38:11;4.93;;;1.20;;
17363;SDS011;8799;43.594;13.526;2022-11-20T02:40:50;3.70;;;1.07;;
17363;SDS011;8799;43.594;13.526;2022-11-20T02:43:35;2.77;;;1.30;;
17363;SDS011;8799;43.594;13.526;2022-11-20T02:46:05;1.23;;;0.97;;
17363;SDS011;8799;43.594;13.526;2022-11-20T02:48:34;2.80;;;0.77;;
17363;SDS011;8799;43.594;13.526;2022-11-20T02:51:02;3.13;;;1.07;;
17363;SDS011;8799;43.594;13.526;2022-11-20T02:53:30;2.70;;;1.13;;
17363;SDS011;8799;43.594;13.526;2022-11-20T02:56:00;5.03;;;1.23;;
17363;SDS011;8799;43.594;13.526;2022-11-20T02:58:28;1.97;;;1.13;;
17363;SDS011;8799;43.594;13.526;2022-11-20T03:00:57;0.83;;;0.70;;
17363;SDS011;8799;43.594;13.526;2022-11-20T03:03:27;1.67;;;0.77;;
17363;SDS011;8799;43.594;13.526;2022-11-20T03:05:54;3.10;;;0.87;;
17363;SDS011;8799;43.594;13.526;2022-11-20T03:08:22;1.37;;;0.83;;
17363;SDS011;8799;43.594;13.526;2022-11-20T03:10:50;2.63;;;0.93;;
17363;SDS011;8799;43.594;13.526;2022-11-20T03:13:20;1.93;;;0.90;;
17363;SDS011;8799;43.594;13.526;2022-11-20T03:15:48;1.23;;;0.87;;
17363;SDS011;8799;43.594;13.526;2022-11-20T03:18:16;3.57;;;0.93;;
17363;SDS011;8799;43.594;13.526;2022-11-20T03:20:44;3.20;;;0.80;;
17363;SDS011;8799;43.594;13.526;2022-11-20T03:23:12;0.60;;;0.60;;
17363;SDS011;8799;43.594;13.526;2022-11-20T03:25:39;1.70;;;0.90;;
17363;SDS011;8799;43.594;13.526;2022-11-20T03:28:07;3.00;;;0.90;;
17363;SDS011;8799;43.594;13.526;2022-11-20T03:30:37;1.40;;;0.60;;
17363;SDS011;8799;43.594;13.526;2022-11-20T03:33:05;2.63;;;1.00;;
17363;SDS011;8799;43.594;13.526;2022-11-20T03:35:33;2.77;;;0.87;;
17363;SDS011;8799;43.594;13.526;2022-11-20T03:38:01;2.00;;;0.90;;
17363;SDS011;8799;43.594;13.526;2022-11-20T03:40:30;1.97;;;0.67;;
17363;SDS011;8799;43.594;13.526;2022-11-20T03:42:58;0.60;;;0.50;;
17363;SDS011;8799;43.594;13.526;2022-11-20T03:45:26;3.17;;;0.77;;
17363;SDS011;8799;43.594;13.526;2022-11-20T03:47:55;2.47;;;0.97;;
17363;SDS011;8799;43.594;13.526;2022-11-20T03:50:23;1.40;;;0.80;;
17363;SDS011;8799;43.594;13.526;2022-11-20T03:52:51;2.03;;;0.90;;
17363;SDS011;8799;43.594;13.526;2022-11-20T03:55:19;4.20;;;1.10;;
17363;SDS011;8799;43.594;13.526;2022-11-20T03:57:47;0.63;;;0.63;;
17363;SDS011;8799;43.594;13.526;2022-11-20T04:00:15;2.30;;;0.80;;
17363;SDS011;8799;43.594;13.526;2022-11-20T04:02:43;1.17;;;0.60;;
17363;SDS011;8799;43.594;13.526;2022-11-20T04:05:12;1.60;;;0.70;;
17363;SDS011;8799;43.594;13.526;2022-11-20T04:07:40;4.30;;;0.90;;
17363;SDS011;8799;43.594;13.526;2022-11-20T04:10:08;1.70;;;0.73;;
17363;SDS011;8799;43.594;13.526;2022-11-20T04:12:37;0.70;;;0.70;;
17363;SDS011;8799;43.594;13.526;2022-11-20T04:15:05;1.03;;;0.97;;
17363;SDS011;8799;43.594;13.526;2022-11-20T04:17:33;2.90;;;0.93;;
17363;SDS011;8799;43.594;13.526;2022-11-20T04:20:02;1.60;;;0.80;;
17363;SDS011;8799;43.594;13.526;2022-11-20T04:22:32;3.17;;;1.17;;
17363;SDS011;8799;43.594;13.526;2022-11-20T04:25:00;0.97;;;0.87;;
17363;SDS011;8799;43.594;13.526;2022-11-20T04:27:30;1.97;;;1.20;;
17363;SDS011;8799;43.594;13.526;2022-11-20T04:29:58;7.13;;;1.70;;
17363;SDS011;8799;43.594;13.526;2022-11-20T04:32:25;3.23;;;0.90;;
17363;SDS011;8799;43.594;13.526;2022-11-20T04:34:54;4.03;;;1.00;;
17363;SDS011;8799;43.594;13.526;2022-11-20T04:37:22;1.63;;;0.83;;
17363;SDS011;8799;43.594;13.526;2022-11-20T04:39:52;0.93;;;0.80;;
17363;SDS011;8799;43.594;13.526;2022-11-20T04:42:19;2.33;;;0.80;;
17363;SDS011;8799;43.594;13.526;2022-11-20T04:44:56;3.17;;;1.10;;
17363;SDS011;8799;43.594;13.526;2022-11-20T04:47:25;3.70;;;1.20;;
17363;SDS011;8799;43.594;13.526;2022-11-20T04:49:53;2.67;;;1.20;;
17363;SDS011;8799;43.594;13.526;2022-11-20T04:52:21;1.60;;;0.97;;
17363;SDS011;8799;43.594;13.526;2022-11-20T04:54:49;1.80;;;1.00;;
17363;SDS011;8799;43.594;13.526;2022-11-20T04:57:20;2.03;;;1.10;;
17363;SDS011;8799;43.594;13.526;2022-11-20T04:59:50;1.50;;;1.07;;
17363;SDS011;8799;43.594;13.526;2022-11-20T05:02:18;1.07;;;0.70;;
17363;SDS011;8799;43.594;13.526;2022-11-20T05:04:47;0.67;;;0.67;;
17363;SDS011;8799;43.594;13.526;2022-11-20T05:07:15;2.80;;;1.17;;
17363;SDS011;8799;43.594;13.526;2022-11-20T05:09:43;2.63;;;1.00;;
17363;SDS011;8799;43.594;13.526;2022-11-20T05:12:12;2.60;;;1.10;;
17363;SDS011;8799;43.594;13.526;2022-11-20T05:14:42;1.23;;;0.90;;
17363;SDS011;8799;43.594;13.526;2022-11-20T05:17:10;1.23;;;0.83;;
17363;SDS011;8799;43.594;13.526;2022-11-20T05:19:38;1.00;;;0.90;;
17363;SDS011;8799;43.594;13.526;2022-11-20T05:22:06;1.63;;;0.80;;
17363;SDS011;8799;43.594;13.526;2022-11-20T05:24:36;3.43;;;1.00;;
17363;SDS011;8799;43.594;13.526;2022-11-20T05:27:05;4.13;;;1.37;;
17363;SDS011;8799;43.594;13.526;2022-11-20T05:29:32;1.03;;;0.90;;
17363;SDS011;8799;43.594;13.526;2022-11-20T05:32:03;1.80;;;0.90;;
17363;SDS011;8799;43.594;13.526;2022-11-20T05:34:34;1.37;;;1.00;;
17363;SDS011;8799;43.594;13.526;2022-11-20T05:37:05;1.27;;;0.70;;
17363;SDS011;8799;43.594;13.526;2022-11-20T05:39:33;7.00;;;1.33;;
17363;SDS011;8799;43.594;13.526;2022-11-20T05:42:02;1.63;;;1.00;;
17363;SDS011;8799;43.594;13.526;2022-11-20T05:44:46;1.03;;;0.87;;
17363;SDS011;8799;43.594;13.526;2022-11-20T05:47:16;3.77;;;1.10;;
17363;SDS011;8799;43.594;13.526;2022-11-20T05:49:44;2.20;;;1.00;;
17363;SDS011;8799;43.594;13.526;2022-11-20T05:52:13;4.33;;;0.90;;
17363;SDS011;8799;43.594;13.526;2022-11-20T05:54:41;3.33;;;1.43;;
17363;SDS011;8799;43.594;13.526;2022-11-20T05:57:08;1.60;;;1.00;;
17363;SDS011;8799;43.594;13.526;2022-11-20T05:59:37;1.13;;;0.80;;
17363;SDS011;8799;43.594;13.526;2022-11-20T06:02:05;1.10;;;0.90;;
17363;SDS011;8799;43.594;13.526;2022-11-20T06:04:35;3.07;;;1.00;;
17363;SDS011;8799;43.594;13.526;2022-11-20T06:07:04;0.97;;;0.60;;
17363;SDS011;8799;43.594;13.526;2022-11-20T06:09:32;1.10;;;0.93;;
17363;SDS011;8799;43.594;13.526;2022-11-20T06:12:00;2.53;;;1.50;;
17363;SDS011;8799;43.594;13.526;2022-11-20T06:14:29;1.10;;;0.73;;
17363;SDS011;8799;43.594;13.526;2022-11-20T06:16:57;1.33;;;0.70;;
17363;SDS011;8799;43.594;13.526;2022-11-20T06:19:27;0.53;;;0.53;;
17363;SDS011;8799;43.594;13.526;2022-11-20T06:21:56;2.70;;;1.20;;
17363;SDS011;8799;43.594;13.526;2022-11-20T06:24:24;2.13;;;0.93;;
17363;SDS011;8799;43.594;13.526;2022-11-20T06:26:52;2.20;;;1.23;;
17363;SDS011;8799;43.594;13.526;2022-11-20T06:29:20;2.00;;;1.10;;
17363;SDS011;8799;43.594;13.526;2022-11-20T06:31:48;1.37;;;0.87;;
17363;SDS011;8799;43.594;13.526;2022-11-20T06:34:16;2.93;;;1.30;;
17363;SDS011;8799;43.594;13.526;2022-11-20T06:36:44;4.30;;;1.50;;
17363;SDS011;8799;43.594;13.526;2022-11-20T06:39:14;2.40;;;1.30;;
17363;SDS011;8799;43.594;13.526;2022-11-20T06:41:42;5.27;;;1.90;;
17363;SDS011;8799;43.594;13.526;2022-11-20T06:44:10;3.80;;;1.90;;
17363;SDS011;8799;43.594;13.526;2022-11-20T06:46:38;4.73;;;1.73;;
17363;SDS011;8799;43.594;13.526;2022-11-20T06:49:06;3.23;;;1.70;;
17363;SDS011;8799;43.594;13.526;2022-11-20T06:51:34;6.63;;;1.40;;
17363;SDS011;8799;43.594;13.526;2022-11-20T06:54:03;4.33;;;1.73;;
17363;SDS011;8799;43.594;13.526;2022-11-20T06:56:32;4.13;;;1.50;;
17363;SDS011;8799;43.594;13.526;2022-11-20T06:59:03;8.80;;;1.60;;
17363;SDS011;8799;43.594;13.526;2022-11-20T07:01:32;1.73;;;1.10;;
17363;SDS011;8799;43.594;13.526;2022-11-20T07:04:00;1.63;;;1.17;;
17363;SDS011;8799;43.594;13.526;2022-11-20T07:06:28;2.97;;;1.40;;
17363;SDS011;8799;43.594;13.526;2022-11-20T07:08:56;3.37;;;1.00;;
17363;SDS011;8799;43.594;13.526;2022-11-20T07:11:24;2.20;;;1.30;;
17363;SDS011;8799;43.594;13.526;2022-11-20T07:13:53;2.00;;;1.23;;
17363;SDS011;8799;43.594;13.526;2022-11-20T07:16:21;1.33;;;1.20;;
17363;SDS011;8799;43.594;13.526;2022-11-20T07:18:51;1.73;;;0.97;;
17363;SDS011;8799;43.594;13.526;2022-11-20T07:21:20;1.93;;;1.30;;
17363;SDS011;8799;43.594;13.526;2022-11-20T07:23:48;1.53;;;1.10;;
17363;SDS011;8799;43.594;13.526;2022-11-20T07:26:16;1.27;;;0.80;;
17363;SDS011;8799;43.594;13.526;2022-11-20T07:28:44;1.57;;;0.90;;
17363;SDS011;8799;43.594;13.526;2022-11-20T07:31:14;1.33;;;0.80;;
17363;SDS011;8799;43.594;13.526;2022-11-20T07:33:42;1.27;;;0.80;;
17363;SDS011;8799;43.594;13.526;2022-11-20T07:36:10;2.57;;;1.30;;
17363;SDS011;8799;43.594;13.526;2022-11-20T07:38:38;1.30;;;0.63;;
17363;SDS011;8799;43.594;13.526;2022-11-20T07:41:06;1.27;;;0.70;;
17363;SDS011;8799;43.594;13.526;2022-11-20T07:43:34;3.57;;;1.10;;
17363;SDS011;8799;43.594;13.526;2022-11-20T07:46:02;1.63;;;0.90;;
17363;SDS011;8799;43.594;13.526;2022-11-20T07:48:32;0.97;;;0.70;;
17363;SDS011;8799;43.594;13.526;2022-11-20T07:51:00;1.67;;;0.80;;
17363;SDS011;8799;43.594;13.526;2022-11-20T07:53:29;2.23;;;0.80;;
17363;SDS011;8799;43.594;13.526;2022-11-20T07:55:59;4.27;;;1.00;;
17363;SDS011;8799;43.594;13.526;2022-11-20T07:58:28;7.20;;;1.60;;
17363;SDS011;8799;43.594;13.526;2022-11-20T08:00:57;10.70;;;2.70;;
17363;SDS011;8799;43.594;13.526;2022-11-20T08:03:28;7.17;;;3.80;;
17363;SDS011;8799;43.594;13.526;2022-11-20T08:05:59;6.70;;;3.90;;
17363;SDS011;8799;43.594;13.526;2022-11-20T08:08:28;11.43;;;5.93;;
17363;SDS011;8799;43.594;13.526;2022-11-20T08:10:56;9.73;;;5.53;;
17363;SDS011;8799;43.594;13.526;2022-11-20T08:13:44;10.63;;;6.47;;
17363;SDS011;8799;43.594;13.526;2022-11-20T08:16:28;15.67;;;7.20;;
17363;SDS011;8799;43.594;13.526;2022-11-20T08:18:57;12.30;;;7.77;;
17363;SDS011;8799;43.594;13.526;2022-11-20T08:21:27;18.20;;;8.83;;
17363;SDS011;8799;43.594;13.526;2022-11-20T08:23:57;15.50;;;8.07;;
17363;SDS011;8799;43.594;13.526;2022-11-20T08:26:25;11.63;;;7.20;;
17363;SDS011;8799;43.594;13.526;2022-11-20T08:28:53;12.90;;;7.47;;
17363;SDS011;8799;43.594;13.526;2022-11-20T08:31:22;10.97;;;5.90;;
17363;SDS011;8799;43.594;13.526;2022-11-20T08:33:53;13.03;;;4.00;;
17363;SDS011;8799;43.594;13.526;2022-11-20T08:36:41;3.83;;;2.97;;
17363;SDS011;8799;43.594;13.526;2022-11-20T08:39:11;5.37;;;2.27;;
17363;SDS011;8799;43.594;13.526;2022-11-20T08:41:46;4.87;;;1.50;;
17363;SDS011;8799;43.594;13.526;2022-11-20T08:44:48;4.17;;;1.47;;
17363;SDS011;8799;43.594;13.526;2022-11-20T08:47:15;8.53;;;1.90;;
17363;SDS011;8799;43.594;13.526;2022-11-20T08:49:43;5.73;;;1.80;;
17363;SDS011;8799;43.594;13.526;2022-11-20T08:52:13;3.23;;;1.60;;
17363;SDS011;8799;43.594;13.526;2022-11-20T08:54:40;3.17;;;1.30;;
17363;SDS011;8799;43.594;13.526;2022-11-20T08:57:08;6.73;;;1.50;;
17363;SDS011;8799;43.594;13.526;2022-11-20T08:59:36;3.73;;;1.70;;
17363;SDS011;8799;43.594;13.526;2022-11-20T09:02:05;4.93;;;2.00;;
17363;SDS011;8799;43.594;13.526;2022-11-20T09:07:13;5.13;;;2.07;;
17363;SDS011;8799;43.594;13.526;2022-11-20T09:09:41;5.67;;;2.03;;
17363;SDS011;8799;43.594;13.526;2022-11-20T09:12:09;2.93;;;1.50;;
17363;SDS011;8799;43.594;13.526;2022-11-20T09:14:38;5.77;;;2.10;;
17363;SDS011;8799;43.594;13.526;2022-11-20T09:17:06;4.53;;;1.73;;
17363;SDS011;8799;43.594;13.526;2022-11-20T09:19:35;3.90;;;1.80;;
17363;SDS011;8799;43.594;13.526;2022-11-20T09:22:04;5.17;;;2.50;;
17363;SDS011;8799;43.594;13.526;2022-11-20T09:24:33;5.30;;;2.13;;
17363;SDS011;8799;43.594;13.526;2022-11-20T09:27:01;9.87;;;2.37;;
17363;SDS011;8799;43.594;13.526;2022-11-20T09:29:30;7.30;;;2.47;;
17363;SDS011;8799;43.594;13.526;2022-11-20T09:31:58;9.50;;;2.63;;
17363;SDS011;8799;43.594;13.526;2022-11-20T09:34:26;5.80;;;2.40;;
17363;SDS011;8799;43.594;13.526;2022-11-20T09:36:54;5.93;;;2.83;;
17363;SDS011;8799;43.594;13.526;2022-11-20T09:39:22;8.80;;;2.50;;
17363;SDS011;8799;43.594;13.526;2022-11-20T09:42:02;5.57;;;2.40;;
17363;SDS011;8799;43.594;13.526;2022-11-20T09:44:41;4.60;;;2.67;;
17363;SDS011;8799;43.594;13.526;2022-11-20T09:47:22;6.80;;;2.73;;
17363;SDS011;8799;43.594;13.526;2022-11-20T09:50:10;6.33;;;2.80;;
17363;SDS011;8799;43.594;13.526;2022-11-20T09:52:48;7.13;;;2.63;;
17363;SDS011;8799;43.594;13.526;2022-11-20T09:55:38;3.37;;;2.43;;
17363;SDS011;8799;43.594;13.526;2022-11-20T09:58:12;7.07;;;3.70;;
17363;SDS011;8799;43.594;13.526;2022-11-20T10:00:43;8.87;;;4.63;;
17363;SDS011;8799;43.594;13.526;2022-11-20T10:03:13;9.47;;;5.53;;
17363;SDS011;8799;43.594;13.526;2022-11-20T10:05:44;11.33;;;5.23;;
17363;SDS011;8799;43.594;13.526;2022-11-20T10:08:15;7.93;;;5.03;;
17363;SDS011;8799;43.594;13.526;2022-11-20T10:10:49;6.93;;;4.30;;
17363;SDS011;8799;43.594;13.526;2022-11-20T10:13:23;10.00;;;4.87;;
17363;SDS011;8799;43.594;13.526;2022-11-20T10:16:09;9.83;;;4.30;;
17363;SDS011;8799;43.594;13.526;2022-11-20T10:18:50;5.77;;;3.70;;
17363;SDS011;8799;43.594;13.526;2022-11-20T10:21:29;7.63;;;3.17;;
17363;SDS011;8799;43.594;13.526;2022-11-20T10:24:07;4.17;;;2.63;;
17363;SDS011;8799;43.594;13.526;2022-11-20T10:26:59;4.30;;;2.50;;
17363;SDS011;8799;43.594;13.526;2022-11-20T10:29:38;4.47;;;2.13;;
17363;SDS011;8799;43.594;13.526;2022-11-20T10:32:10;5.83;;;2.53;;
17363;SDS011;8799;43.594;13.526;2022-11-20T10:34:45;3.20;;;2.37;;
17363;SDS011;8799;43.594;13.526;2022-11-20T10:37:18;3.90;;;2.07;;
17363;SDS011;8799;43.594;13.526;2022-11-20T10:39:53;3.30;;;2.00;;
17363;SDS011;8799;43.594;13.526;2022-11-20T10:42:26;3.20;;;1.93;;
17363;SDS011;8799;43.594;13.526;2022-11-20T10:45:01;4.93;;;2.17;;
17363;SDS011;8799;43.594;13.526;2022-11-20T10:47:38;6.23;;;2.23;;
17363;SDS011;8799;43.594;13.526;2022-11-20T10:50:08;2.47;;;1.90;;
17363;SDS011;8799;43.594;13.526;2022-11-20T10:52:41;2.27;;;1.60;;
17363;SDS011;8799;43.594;13.526;2022-11-20T10:55:24;5.10;;;1.90;;
17363;SDS011;8799;43.594;13.526;2022-11-20T10:57:59;2.67;;;1.87;;
17363;SDS011;8799;43.594;13.526;2022-11-20T11:00:34;5.40;;;2.00;;
17363;SDS011;8799;43.594;13.526;2022-11-20T11:03:01;3.50;;;2.03;;
17363;SDS011;8799;43.594;13.526;2022-11-20T11:05:34;6.07;;;1.60;;
17363;SDS011;8799;43.594;13.526;2022-11-20T11:08:05;2.83;;;1.50;;
17363;SDS011;8799;43.594;13.526;2022-11-20T11:10:41;4.70;;;1.80;;
17363;SDS011;8799;43.594;13.526;2022-11-20T11:13:19;3.07;;;1.50;;
17363;SDS011;8799;43.594;13.526;2022-11-20T11:15:50;2.43;;;1.30;;
17363;SDS011;8799;43.594;13.526;2022-11-20T11:18:28;2.07;;;1.20;;
17363;SDS011;8799;43.594;13.526;2022-11-20T11:20:57;1.30;;;1.20;;
17363;SDS011;8799;43.594;13.526;2022-11-20T11:23:29;2.10;;;1.27;;
17363;SDS011;8799;43.594;13.526;2022-11-20T11:26:02;2.77;;;1.03;;
17363;SDS011;8799;43.594;13.526;2022-11-20T11:28:31;1.93;;;1.20;;
17363;SDS011;8799;43.594;13.526;2022-11-20T11:31:01;1.27;;;1.17;;
17363;SDS011;8799;43.594;13.526;2022-11-20T11:33:29;3.57;;;1.33;;
17363;SDS011;8799;43.594;13.526;2022-11-20T11:35:59;1.80;;;1.20;;
17363;SDS011;8799;43.594;13.526;2022-11-20T11:38:30;2.37;;;1.17;;
17363;SDS011;8799;43.594;13.526;2022-11-20T11:41:02;1.00;;;0.80;;
17363;SDS011;8799;43.594;13.526;2022-11-20T11:43:34;3.47;;;1.30;;
17363;SDS011;8799;43.594;13.526;2022-11-20T11:49:14;1.17;;;1.00;;
17363;SDS011;8799;43.594;13.526;2022-11-20T11:51:50;1.33;;;1.07;;
17363;SDS011;8799;43.594;13.526;2022-11-20T11:54:28;1.87;;;0.83;;
17363;SDS011;8799;43.594;13.526;2022-11-20T11:57:04;4.10;;;1.57;;
17363;SDS011;8799;43.594;13.526;2022-11-20T11:59:41;3.07;;;0.80;;
17363;SDS011;8799;43.594;13.526;2022-11-20T12:02:24;0.77;;;0.70;;
17363;SDS011;8799;43.594;13.526;2022-11-20T12:05:00;1.87;;;0.90;;
17363;SDS011;8799;43.594;13.526;2022-11-20T12:07:36;0.60;;;0.60;;
17363;SDS011;8799;43.594;13.526;2022-11-20T12:10:12;1.03;;;0.90;;
17363;SDS011;8799;43.594;13.526;2022-11-20T12:12:48;1.40;;;0.73;;
17363;SDS011;8799;43.594;13.526;2022-11-20T12:15:29;1.90;;;0.73;;
17363;SDS011;8799;43.594;13.526;2022-11-20T12:17:59;1.47;;;0.70;;
17363;SDS011;8799;43.594;13.526;2022-11-20T12:20:28;1.23;;;0.60;;
17363;SDS011;8799;43.594;13.526;2022-11-20T12:23:04;2.47;;;1.20;;
17363;SDS011;8799;43.594;13.526;2022-11-20T12:25:37;0.97;;;0.63;;
17363;SDS011;8799;43.594;13.526;2022-11-20T12:31:09;1.00;;;0.90;;
17363;SDS011;8799;43.594;13.526;2022-11-20T12:33:53;2.30;;;1.00;;
17363;SDS011;8799;43.594;13.526;2022-11-20T12:36:40;3.47;;;0.97;;
17363;SDS011;8799;43.594;13.526;2022-11-20T12:39:16;0.90;;;0.90;;
17363;SDS011;8799;43.594;13.526;2022-11-20T12:42:05;2.43;;;1.10;;
17363;SDS011;8799;43.594;13.526;2022-11-20T12:45:12;1.77;;;0.90;;
17363;SDS011;8799;43.594;13.526;2022-11-20T12:48:03;0.80;;;0.80;;
17363;SDS011;8799;43.594;13.526;2022-11-20T12:50:50;3.53;;;1.03;;
17363;SDS011;8799;43.594;13.526;2022-11-20T12:53:29;2.23;;;1.17;;
17363;SDS011;8799;43.594;13.526;2022-11-20T12:56:17;1.80;;;1.03;;
17363;SDS011;8799;43.594;13.526;2022-11-20T12:58:53;3.50;;;0.97;;
17363;SDS011;8799;43.594;13.526;2022-11-20T13:01:37;1.07;;;0.87;;
17363;SDS011;8799;43.594;13.526;2022-11-20T13:04:18;1.77;;;0.90;;
17363;SDS011;8799;43.594;13.526;2022-11-20T13:06:57;0.80;;;0.80;;
17363;SDS011;8799;43.594;13.526;2022-11-20T13:09:26;1.10;;;0.80;;
17363;SDS011;8799;43.594;13.526;2022-11-20T13:11:57;2.43;;;0.63;;
17363;SDS011;8799;43.594;13.526;2022-11-20T13:14:32;2.23;;;1.00;;
17363;SDS011;8799;43.594;13.526;2022-11-20T13:17:05;0.80;;;0.67;;
17363;SDS011;8799;43.594;13.526;2022-11-20T13:19:41;0.80;;;0.70;;
17363;SDS011;8799;43.594;13.526;2022-11-20T13:22:23;1.93;;;0.60;;
17363;SDS011;8799;43.594;13.526;2022-11-20T13:24:52;1.30;;;0.93;;
17363;SDS011;8799;43.594;13.526;2022-11-20T13:27:20;1.00;;;0.63;;
17363;SDS011;8799;43.594;13.526;2022-11-20T13:30:00;1.10;;;0.80;;
17363;SDS011;8799;43.594;13.526;2022-11-20T13:32:47;1.90;;;0.53;;
17363;SDS011;8799;43.594;13.526;2022-11-20T13:35:23;0.87;;;0.57;;
17363;SDS011;8799;43.594;13.526;2022-11-20T13:38:08;0.87;;;0.60;;
17363;SDS011;8799;43.594;13.526;2022-11-20T13:40:37;0.93;;;0.53;;
17363;SDS011;8799;43.594;13.526;2022-11-20T13:43:21;0.53;;;0.50;;
17363;SDS011;8799;43.594;13.526;2022-11-20T13:45:55;0.90;;;0.50;;
17363;SDS011;8799;43.594;13.526;2022-11-20T13:48:26;2.70;;;1.10;;
17363;SDS011;8799;43.594;13.526;2022-11-20T13:51:00;1.67;;;0.80;;
17363;SDS011;8799;43.594;13.526;2022-11-20T13:53:42;0.77;;;0.63;;
17363;SDS011;8799;43.594;13.526;2022-11-20T13:56:30;0.83;;;0.50;;
17363;SDS011;8799;43.594;13.526;2022-11-20T13:59:09;1.77;;;0.80;;
17363;SDS011;8799;43.594;13.526;2022-11-20T14:01:45;4.93;;;1.20;;
17363;SDS011;8799;43.594;13.526;2022-11-20T14:04:14;6.70;;;1.10;;
17363;SDS011;8799;43.594;13.526;2022-11-20T14:06:47;5.70;;;1.17;;
17363;SDS011;8799;43.594;13.526;2022-11-20T14:09:26;3.20;;;1.00;;
17363;SDS011;8799;43.594;13.526;2022-11-20T14:11:55;4.40;;;1.20;;
17363;SDS011;8799;43.594;13.526;2022-11-20T14:14:24;2.43;;;1.30;;
17363;SDS011;8799;43.594;13.526;2022-11-20T14:16:53;1.93;;;1.17;;
17363;SDS011;8799;43.594;13.526;2022-11-20T14:19:33;2.77;;;1.40;;
17363;SDS011;8799;43.594;13.526;2022-11-20T14:22:09;2.37;;;1.50;;
17363;SDS011;8799;43.594;13.526;2022-11-20T14:24:46;3.17;;;1.40;;
17363;SDS011;8799;43.594;13.526;2022-11-20T14:27:15;6.17;;;1.57;;
17363;SDS011;8799;43.594;13.526;2022-11-20T14:29:45;1.67;;;1.23;;
17363;SDS011;8799;43.594;13.526;2022-11-20T14:32:16;2.50;;;1.40;;
17363;SDS011;8799;43.594;13.526;2022-11-20T14:34:47;3.93;;;1.57;;
17363;SDS011;8799;43.594;13.526;2022-11-20T14:37:18;1.33;;;1.23;;
17363;SDS011;8799;43.594;13.526;2022-11-20T14:39:50;3.57;;;1.60;;
17363;SDS011;8799;43.594;13.526;2022-11-20T14:42:20;2.40;;;1.40;;
17363;SDS011;8799;43.594;13.526;2022-11-20T14:44:49;3.20;;;1.17;;
17363;SDS011;8799;43.594;13.526;2022-11-20T14:47:21;3.43;;;1.30;;
17363;SDS011;8799;43.594;13.526;2022-11-20T14:49:52;0.93;;;0.90;;
17363;SDS011;8799;43.594;13.526;2022-11-20T14:52:22;1.67;;;1.20;;
17363;SDS011;8799;43.594;13.526;2022-11-20T14:54:54;2.13;;;1.10;;
17363;SDS011;8799;43.594;13.526;2022-11-20T14:57:25;1.07;;;0.97;;
17363;SDS011;8799;43.594;13.526;2022-11-20T15:00:04;2.50;;;1.40;;
17363;SDS011;8799;43.594;13.526;2022-11-20T15:02:47;3.93;;;2.50;;
17363;SDS011;8799;43.594;13.526;2022-11-20T15:05:17;10.67;;;6.03;;
17363;SDS011;8799;43.594;13.526;2022-11-20T15:07:46;11.43;;;7.00;;
17363;SDS011;8799;43.594;13.526;2022-11-20T15:10:21;13.93;;;7.17;;
17363;SDS011;8799;43.594;13.526;2022-11-20T15:12:51;11.90;;;7.47;;
17363;SDS011;8799;43.594;13.526;2022-11-20T15:15:21;12.07;;;6.47;;
17363;SDS011;8799;43.594;13.526;2022-11-20T15:17:52;12.57;;;5.53;;
17363;SDS011;8799;43.594;13.526;2022-11-20T15:20:21;10.77;;;5.13;;
17363;SDS011;8799;43.594;13.526;2022-11-20T15:22:52;11.13;;;4.23;;
17363;SDS011;8799;43.594;13.526;2022-11-20T15:25:25;9.25;;;5.05;;